createdAt,value
2019-06-08T00:02:14.719Z,1.57
2019-06-08T00:04:41.749Z,1.90
2019-06-08T00:07:08.703Z,1.20
2019-06-08T00:09:35.660Z,1.13
2019-06-08T00:12:02.637Z,2.00
2019-06-08T00:14:29.610Z,1.40
2019-06-08T00:16:59.362Z,1.50
2019-06-08T00:19:26.315Z,1.37
2019-06-08T00:21:53.280Z,1.70
2019-06-08T00:24:20.309Z,1.30
2019-06-08T00:26:47.254Z,1.53
2019-06-08T00:29:14.503Z,1.50
2019-06-08T00:31:41.457Z,1.47
2019-06-08T00:34:08.392Z,1.43
2019-06-08T00:36:35.356Z,2.23
2019-06-08T00:39:03.991Z,1.10
2019-06-08T00:41:30.934Z,1.10
2019-06-08T00:43:58.520Z,1.53
2019-06-08T00:46:25.752Z,2.07
2019-06-08T00:48:52.856Z,1.77
2019-06-08T00:51:20.986Z,1.30
2019-06-08T00:53:48.133Z,1.07
2019-06-08T00:56:15.076Z,1.50
2019-06-08T00:58:42.079Z,1.40
2019-06-08T01:01:09.146Z,1.53
2019-06-08T01:03:36.083Z,1.57
2019-06-08T01:06:03.034Z,1.57
2019-06-08T01:08:30.006Z,1.67
2019-06-08T01:10:56.948Z,1.70
2019-06-08T01:13:24.912Z,1.30
2019-06-08T01:15:51.956Z,1.80
2019-06-08T01:18:20.697Z,1.57
2019-06-08T01:20:47.761Z,1.50
2019-06-08T01:23:14.754Z,2.03
2019-06-08T01:25:41.845Z,1.50
2019-06-08T01:28:08.775Z,1.50
2019-06-08T01:30:35.721Z,1.40
2019-06-08T01:33:02.690Z,1.50
2019-06-08T01:35:30.857Z,1.47
2019-06-08T01:37:57.995Z,1.50
2019-06-08T01:40:27.352Z,1.77
2019-06-08T01:42:54.468Z,1.50
2019-06-08T01:45:32.420Z,1.73
2019-06-08T01:48:20.352Z,1.80
2019-06-08T01:50:46.770Z,1.33
2019-06-08T01:53:13.755Z,2.10
2019-06-08T01:55:40.723Z,1.50
2019-06-08T01:58:07.688Z,2.17
2019-06-08T02:01:11.529Z,1.63
2019-06-08T02:03:38.513Z,1.57
2019-06-08T02:06:05.451Z,1.50
2019-06-08T02:08:32.638Z,1.40
2019-06-08T02:10:59.722Z,1.20
2019-06-08T02:13:26.894Z,2.17
2019-06-08T02:15:53.953Z,2.17
2019-06-08T02:18:35.569Z,1.93
2019-06-08T02:20:49.788Z,1.70
2019-06-08T02:23:16.727Z,1.73
2019-06-08T02:25:43.722Z,1.80
2019-06-08T02:28:11.812Z,1.80
2019-06-08T02:30:41.704Z,1.47
2019-06-08T02:33:07.620Z,1.67
2019-06-08T02:35:35.457Z,2.37
2019-06-08T02:38:03.546Z,1.53
2019-06-08T02:40:32.422Z,1.70
2019-06-08T02:42:59.342Z,1.60
2019-06-08T02:45:26.307Z,1.60
2019-06-08T02:47:53.280Z,1.40
2019-06-08T02:50:49.515Z,1.93
2019-06-08T02:53:17.652Z,2.10
2019-06-08T02:55:46.940Z,1.63
2019-06-08T02:58:14.987Z,1.43
2019-06-08T03:00:44.501Z,1.50
2019-06-08T03:03:12.643Z,2.00
2019-06-08T03:05:40.940Z,1.63
2019-06-08T03:08:09.705Z,1.80
2019-06-08T03:10:42.806Z,1.60
2019-06-08T03:13:10.323Z,2.30
2019-06-08T03:15:39.139Z,1.50
2019-06-08T03:18:06.330Z,2.07
2019-06-08T03:20:33.514Z,1.47
2019-06-08T03:23:00.598Z,2.00
2019-06-08T03:25:27.580Z,1.50
2019-06-08T03:27:54.506Z,1.80
2019-06-08T03:30:21.672Z,1.90
2019-06-08T03:32:55.895Z,1.73
2019-06-08T03:35:17.490Z,2.30
2019-06-08T03:37:44.755Z,2.00
2019-06-08T03:40:11.962Z,2.13
2019-06-08T03:42:38.863Z,1.77
2019-06-08T03:45:06.820Z,1.50
2019-06-08T03:47:34.534Z,1.87
2019-06-08T03:50:01.609Z,1.87
2019-06-08T03:52:28.580Z,1.60
2019-06-08T03:54:55.532Z,1.80
2019-06-08T03:57:22.457Z,1.70
2019-06-08T03:59:49.463Z,1.97
2019-06-08T04:02:16.403Z,2.73
2019-06-08T04:04:43.830Z,1.80
2019-06-08T04:07:10.906Z,1.97
2019-06-08T04:09:39.713Z,2.53
2019-06-08T04:12:06.697Z,1.70
2019-06-08T04:14:33.679Z,1.77
2019-06-08T04:17:00.657Z,2.07
2019-06-08T04:19:27.599Z,1.80
2019-06-08T04:21:54.588Z,2.10
2019-06-08T04:24:22.432Z,1.70
2019-06-08T04:26:50.786Z,2.00
2019-06-08T04:29:25.275Z,2.00
2019-06-08T04:31:52.251Z,2.10
2019-06-08T04:34:20.896Z,1.73
2019-06-08T04:36:50.194Z,2.20
2019-06-08T04:39:16.734Z,2.20
2019-06-08T04:41:44.996Z,2.00
2019-06-08T04:44:12.549Z,2.27
2019-06-08T04:46:40.789Z,2.10
2019-06-08T04:49:08.397Z,2.37
2019-06-08T04:54:51.215Z,2.37
2019-06-08T04:57:20.180Z,2.13
2019-06-08T04:59:48.352Z,1.97
2019-06-08T05:02:16.047Z,2.50
2019-06-08T05:04:43.313Z,2.00
2019-06-08T05:07:10.810Z,2.70
2019-06-08T05:09:39.061Z,1.90
2019-06-08T05:12:06.263Z,2.43
2019-06-08T05:14:33.199Z,1.67
2019-06-08T05:17:00.167Z,1.80
2019-06-08T05:19:27.101Z,2.30
2019-06-08T05:21:54.057Z,1.77
2019-06-08T05:24:21.011Z,2.17
2019-06-08T05:26:48.018Z,2.27
2019-06-08T05:29:15.385Z,2.00
2019-06-08T05:31:43.523Z,1.73
2019-06-08T05:34:10.812Z,2.33
2019-06-08T05:36:37.732Z,1.87
2019-06-08T05:39:06.198Z,2.73
2019-06-08T05:41:33.176Z,2.63
2019-06-08T05:44:00.267Z,2.40
2019-06-08T05:46:27.205Z,2.60
2019-06-08T05:48:54.188Z,2.20
2019-06-08T05:51:21.160Z,2.33
2019-06-08T05:53:48.145Z,2.30
2019-06-08T05:56:16.213Z,2.70
2019-06-08T05:58:44.613Z,2.70
2019-06-08T06:01:11.598Z,2.23
2019-06-08T06:03:38.531Z,2.27
2019-06-08T06:06:07.908Z,2.60
2019-06-08T06:08:34.893Z,2.50
2019-06-08T06:11:01.828Z,2.97
2019-06-08T06:13:28.760Z,2.07
2019-06-08T06:15:55.742Z,2.63
2019-06-08T06:18:22.682Z,2.67
2019-06-08T06:20:49.626Z,2.47
2019-06-08T06:23:16.607Z,2.53
2019-06-08T06:25:43.567Z,3.17
2019-06-08T06:28:10.532Z,2.60
2019-06-08T06:30:37.478Z,2.40
2019-06-08T06:33:04.439Z,2.40
2019-06-08T06:35:31.383Z,2.40
2019-06-08T06:37:58.386Z,2.70
2019-06-08T06:40:25.349Z,2.10
2019-06-08T06:42:52.434Z,2.63
2019-06-08T06:45:19.512Z,2.30
2019-06-08T06:47:46.584Z,3.03
2019-06-08T06:50:13.655Z,2.77
2019-06-08T06:52:42.762Z,2.30
2019-06-08T06:55:09.955Z,2.60
2019-06-08T06:57:37.062Z,2.57
2019-06-08T07:00:06.008Z,2.30
2019-06-08T07:02:32.991Z,2.63
2019-06-08T07:04:59.923Z,2.63
2019-06-08T07:07:27.355Z,2.73
2019-06-08T07:09:54.958Z,2.93
2019-06-08T07:12:22.056Z,3.03
2019-06-08T07:14:49.179Z,2.50
2019-06-08T07:17:16.131Z,2.33
2019-06-08T07:19:43.089Z,1.80
2019-06-08T07:22:10.106Z,2.40
2019-06-08T07:24:37.087Z,1.70
2019-06-08T07:27:07.442Z,2.63
2019-06-08T07:29:33.741Z,2.37
2019-06-08T07:32:00.733Z,3.10
2019-06-08T07:34:27.676Z,2.63
2019-06-08T07:36:55.542Z,2.53
2019-06-08T07:39:22.750Z,1.87
2019-06-08T07:41:50.233Z,1.83
2019-06-08T07:44:17.294Z,2.37
2019-06-08T07:46:44.244Z,2.00
2019-06-08T07:49:13.233Z,2.30
2019-06-08T07:51:40.202Z,2.00
2019-06-08T07:54:07.171Z,2.00
2019-06-08T07:56:34.120Z,1.93
2019-06-08T07:59:01.138Z,2.43
2019-06-08T08:01:36.047Z,2.20
2019-06-08T08:03:58.349Z,1.90
2019-06-08T08:06:25.445Z,1.90
2019-06-08T08:08:54.791Z,2.13
2019-06-08T08:11:21.962Z,2.10
2019-06-08T08:13:50.123Z,1.90
2019-06-08T08:16:17.890Z,2.87
2019-06-08T08:18:44.846Z,2.43
2019-06-08T08:21:21.775Z,2.03
2019-06-08T08:23:40.750Z,2.10
2019-06-08T08:26:07.723Z,1.53
2019-06-08T08:28:37.394Z,2.33
2019-06-08T08:31:03.612Z,2.23
2019-06-08T08:33:30.565Z,1.40
2019-06-08T08:35:59.786Z,2.20
2019-06-08T08:38:27.320Z,2.63
2019-06-08T08:40:56.380Z,2.10
2019-06-08T08:43:23.271Z,1.90
2019-06-08T08:45:51.087Z,2.03
2019-06-08T08:48:25.431Z,1.80
2019-06-08T08:50:48.351Z,2.03
2019-06-08T08:53:18.070Z,2.27
2019-06-08T08:55:45.112Z,1.57
2019-06-08T08:58:12.088Z,2.17
2019-06-08T09:00:41.268Z,2.57
2019-06-08T09:03:22.037Z,2.63
2019-06-08T09:05:38.176Z,2.00
2019-06-08T09:08:05.301Z,2.53
2019-06-08T09:10:32.235Z,2.13
2019-06-08T09:13:02.951Z,2.40
2019-06-08T09:15:31.539Z,1.90
2019-06-08T09:18:01.019Z,2.27
2019-06-08T09:20:28.544Z,2.10
2019-06-08T09:23:03.914Z,2.20
2019-06-08T09:25:24.928Z,2.47
2019-06-08T09:27:53.339Z,2.33
2019-06-08T09:30:20.967Z,2.30
2019-06-08T09:32:48.024Z,1.83
2019-06-08T09:35:20.884Z,1.80
2019-06-08T09:37:48.387Z,2.07
2019-06-08T09:40:15.452Z,2.17
2019-06-08T09:42:42.414Z,1.67
2019-06-08T09:45:09.612Z,2.27
2019-06-08T09:47:38.107Z,2.73
2019-06-08T09:50:08.935Z,2.30
2019-06-08T09:52:34.656Z,2.10
2019-06-08T09:55:03.960Z,2.53
2019-06-08T09:57:31.776Z,2.30
2019-06-08T10:00:05.175Z,1.77
2019-06-08T10:02:28.749Z,2.73
2019-06-08T10:04:56.694Z,2.10
2019-06-08T10:07:24.915Z,2.40
2019-06-08T10:09:54.289Z,2.33
2019-06-08T10:12:21.242Z,1.90
2019-06-08T10:14:49.006Z,2.57
2019-06-08T10:17:21.016Z,2.30
2019-06-08T10:19:57.896Z,2.20
2019-06-08T10:22:29.595Z,2.40
2019-06-08T10:25:02.818Z,2.63
2019-06-08T10:27:30.557Z,1.97
2019-06-08T10:30:03.160Z,2.20
2019-06-08T10:32:32.182Z,1.80
2019-06-08T10:35:02.285Z,2.03
2019-06-08T10:37:31.464Z,2.23
2019-06-08T10:40:02.557Z,2.00
2019-06-08T10:42:32.909Z,2.10
2019-06-08T10:45:09.459Z,2.60
2019-06-08T10:47:40.195Z,2.23
2019-06-08T10:50:15.304Z,1.90
2019-06-08T10:52:42.739Z,2.33
2019-06-08T10:55:17.867Z,2.60
2019-06-08T10:57:52.507Z,1.77
2019-06-08T11:00:24.772Z,2.23
2019-06-08T11:02:54.753Z,1.80
2019-06-08T11:05:21.975Z,2.20
2019-06-08T11:07:49.072Z,2.40
2019-06-08T11:10:19.050Z,1.83
2019-06-08T11:12:48.375Z,1.93
2019-06-08T11:15:15.018Z,2.00
2019-06-08T11:17:41.949Z,2.33
2019-06-08T11:20:13.063Z,2.73
2019-06-08T11:22:38.410Z,1.63
2019-06-08T11:25:15.174Z,1.80
2019-06-08T11:27:35.305Z,2.00
2019-06-08T11:30:11.485Z,1.90
2019-06-08T11:32:32.663Z,1.97
2019-06-08T11:34:59.928Z,1.60
2019-06-08T11:37:27.041Z,2.23
2019-06-08T11:39:54.100Z,2.10
2019-06-08T11:42:21.183Z,2.70
2019-06-08T11:44:51.075Z,2.43
2019-06-08T11:47:18.181Z,2.30
2019-06-08T11:49:48.016Z,2.30
2019-06-08T11:52:14.260Z,2.50
2019-06-08T11:54:41.496Z,2.07
2019-06-08T11:57:11.704Z,2.10
2019-06-08T11:59:39.478Z,1.87
2019-06-08T12:02:10.533Z,2.90
2019-06-08T12:04:35.447Z,1.70
2019-06-08T12:07:02.420Z,3.70
2019-06-08T12:09:29.422Z,2.00
2019-06-08T12:11:58.114Z,2.13
2019-06-08T12:14:26.421Z,2.50
2019-06-08T12:16:53.428Z,1.83
2019-06-08T12:19:21.030Z,2.80
2019-06-08T12:21:49.873Z,1.70
2019-06-08T12:24:17.020Z,1.80
2019-06-08T12:26:43.979Z,2.63
2019-06-08T12:29:13.048Z,1.80
2019-06-08T12:31:39.844Z,2.00
2019-06-08T12:34:07.212Z,2.00
2019-06-08T12:36:34.204Z,1.90
2019-06-08T12:39:01.296Z,1.50
2019-06-08T12:41:31.176Z,2.10
2019-06-08T12:43:58.047Z,2.13
2019-06-08T12:46:25.138Z,2.23
2019-06-08T12:48:52.128Z,1.77
2019-06-08T12:51:21.296Z,1.63
2019-06-08T12:53:48.001Z,1.80
2019-06-08T12:56:18.678Z,2.07
2019-06-08T12:58:48.199Z,2.27
2019-06-08T13:01:15.148Z,1.97
2019-06-08T13:03:43.913Z,1.90
2019-06-08T13:06:12.498Z,1.50
2019-06-08T13:08:40.026Z,1.80
2019-06-08T13:11:09.026Z,1.87
2019-06-08T13:13:37.842Z,1.67
2019-06-08T13:16:04.840Z,3.37
2019-06-08T13:18:31.806Z,2.30
2019-06-08T13:21:00.447Z,1.97
2019-06-08T13:23:28.318Z,1.40
2019-06-08T13:25:55.516Z,1.70
2019-06-08T13:28:25.417Z,1.67
2019-06-08T13:30:51.387Z,2.17
2019-06-08T13:33:18.371Z,1.73
2019-06-08T13:35:47.832Z,2.03
2019-06-08T13:38:14.732Z,1.40
2019-06-08T13:40:41.795Z,1.73
2019-06-08T13:43:08.908Z,2.10
2019-06-08T13:45:35.882Z,2.13
2019-06-08T13:48:03.088Z,2.03
2019-06-08T13:50:30.255Z,1.97
2019-06-08T13:52:58.747Z,1.67
2019-06-08T13:55:47.658Z,1.90
2019-06-08T13:57:58.108Z,1.67
2019-06-08T14:00:32.506Z,1.90
2019-06-08T14:03:00.842Z,2.30
2019-06-08T14:06:04.586Z,1.60
2019-06-08T14:08:33.010Z,1.70
2019-06-08T14:11:01.411Z,2.63
2019-06-08T14:13:34.127Z,2.20
2019-06-08T14:15:58.605Z,2.03
2019-06-08T14:18:30.001Z,1.20
2019-06-08T14:20:55.050Z,1.63
2019-06-08T14:23:23.138Z,1.10
2019-06-08T14:25:56.648Z,1.20
2019-06-08T14:28:22.474Z,0.67
2019-06-08T14:30:48.921Z,1.20
2019-06-08T14:33:23.012Z,1.53
2019-06-08T14:35:44.771Z,1.20
2019-06-08T14:38:11.902Z,0.80
2019-06-08T14:40:38.883Z,1.23
2019-06-08T14:43:10.492Z,1.10
2019-06-08T14:45:34.842Z,1.40
2019-06-08T14:48:01.800Z,1.40
2019-06-08T14:50:30.691Z,1.43
2019-06-08T14:52:58.909Z,1.73
2019-06-08T14:55:29.732Z,1.23
2019-06-08T14:57:55.284Z,1.50
2019-06-08T15:00:23.046Z,1.40
2019-06-08T15:02:51.092Z,2.23
2019-06-08T15:05:19.598Z,2.17
2019-06-08T15:07:47.794Z,1.83
2019-06-08T15:10:15.064Z,1.47
2019-06-08T15:12:42.012Z,1.23
2019-06-08T15:15:11.166Z,1.70
2019-06-08T15:17:38.109Z,1.83
2019-06-08T15:20:05.301Z,1.43
2019-06-08T15:22:32.370Z,1.67
2019-06-08T15:24:59.305Z,1.70
2019-06-08T15:27:30.019Z,1.70
2019-06-08T15:29:55.137Z,2.17
2019-06-08T15:32:22.957Z,1.83
2019-06-08T15:34:50.968Z,2.43
2019-06-08T15:37:18.601Z,1.90
2019-06-08T15:39:51.116Z,2.60
2019-06-08T15:42:14.588Z,2.33
2019-06-08T15:44:41.713Z,2.00
2019-06-08T15:47:08.697Z,1.93
2019-06-08T15:49:36.030Z,2.50
2019-06-08T15:52:02.999Z,2.33
2019-06-08T15:54:35.738Z,2.17
2019-06-08T15:56:59.831Z,1.87
2019-06-08T15:59:31.176Z,1.73
2019-06-08T16:01:55.675Z,1.50
2019-06-08T16:04:23.425Z,1.47
2019-06-08T16:06:50.409Z,1.47
2019-06-08T16:09:17.416Z,1.20
2019-06-08T16:11:44.413Z,2.00
2019-06-08T16:14:11.440Z,1.47
2019-06-08T16:16:40.601Z,0.90
2019-06-08T16:19:09.191Z,1.90
2019-06-08T16:21:36.153Z,1.23
2019-06-08T16:24:03.176Z,1.20
2019-06-08T16:26:30.305Z,1.50
2019-06-08T16:28:57.241Z,1.50
2019-06-08T16:31:24.229Z,2.10
2019-06-08T16:33:51.222Z,1.60
2019-06-08T16:36:18.218Z,2.23
2019-06-08T16:38:45.412Z,1.73
2019-06-08T16:41:12.412Z,2.20
2019-06-08T16:43:39.763Z,1.40
2019-06-08T16:46:06.720Z,1.97
2019-06-08T16:48:34.360Z,1.70
2019-06-08T16:51:01.665Z,1.83
2019-06-08T16:53:29.412Z,1.37
2019-06-08T16:55:56.556Z,2.43
2019-06-08T16:58:23.519Z,1.83
2019-06-08T17:00:50.614Z,2.10
2019-06-08T17:03:17.581Z,1.70
2019-06-08T17:05:44.568Z,1.80
2019-06-08T17:08:11.659Z,1.83
2019-06-08T17:10:39.031Z,2.07
2019-06-08T17:13:06.021Z,2.33
2019-06-08T17:15:34.116Z,2.13
2019-06-08T17:18:01.197Z,1.73
2019-06-08T17:20:28.137Z,1.53
2019-06-08T17:22:55.168Z,2.30
2019-06-08T17:25:22.221Z,1.53
2019-06-08T17:27:49.195Z,1.90
2019-06-08T17:30:17.081Z,2.03
2019-06-08T17:32:44.034Z,2.03
2019-06-08T17:35:12.098Z,2.30
2019-06-08T17:37:40.120Z,1.90
2019-06-08T17:40:07.469Z,1.60
2019-06-08T17:42:34.818Z,2.50
2019-06-08T17:45:02.033Z,1.97
2019-06-08T17:47:28.991Z,2.07
2019-06-08T17:49:57.135Z,1.90
2019-06-08T17:52:25.985Z,2.37
2019-06-08T17:54:53.033Z,2.13
2019-06-08T17:57:19.985Z,1.80
2019-06-08T17:59:46.938Z,1.90
2019-06-08T18:02:21.265Z,2.00
2019-06-08T18:04:44.335Z,1.90
2019-06-08T18:07:11.449Z,2.23
2019-06-08T18:13:10.184Z,1.40
2019-06-08T18:16:01.644Z,2.03
2019-06-08T18:18:28.624Z,1.80
2019-06-08T18:21:47.215Z,2.13
2019-06-08T18:24:13.579Z,2.10
2019-06-08T18:26:41.803Z,2.17
2019-06-08T18:29:09.239Z,2.13
2019-06-08T18:31:39.562Z,2.73
2019-06-08T18:34:05.095Z,2.30
2019-06-08T18:36:32.348Z,2.60
2019-06-08T18:38:59.327Z,1.80
2019-06-08T18:41:27.138Z,1.87
2019-06-08T18:43:54.424Z,1.87
2019-06-08T18:46:21.423Z,1.37
2019-06-08T18:48:49.301Z,2.20
2019-06-08T18:51:17.489Z,1.50
2019-06-08T18:54:01.878Z,1.37
2019-06-08T18:56:13.476Z,0.90
2019-06-08T18:58:40.455Z,1.27
2019-06-08T19:01:08.750Z,1.00
2019-06-08T19:03:40.278Z,0.90
2019-06-08T19:06:10.155Z,1.77
2019-06-08T19:08:42.356Z,1.77
2019-06-08T19:11:08.529Z,1.60
2019-06-08T19:13:37.855Z,1.30
2019-06-08T19:16:07.440Z,1.53
2019-06-08T19:18:34.003Z,1.60
2019-06-08T19:21:01.066Z,1.20
2019-06-08T19:23:28.141Z,1.80
2019-06-08T19:25:55.137Z,1.37
2019-06-08T19:28:35.322Z,1.43
2019-06-08T19:30:51.673Z,1.70
2019-06-08T19:33:18.829Z,1.73
2019-06-08T19:35:48.979Z,1.87
2019-06-08T19:38:14.649Z,1.63
2019-06-08T19:40:42.615Z,1.87
2019-06-08T19:43:09.821Z,1.40
2019-06-08T19:45:39.146Z,1.60
2019-06-08T19:48:08.098Z,1.60
2019-06-08T19:50:34.615Z,1.83
2019-06-08T19:53:01.597Z,1.80
2019-06-08T19:55:28.674Z,1.60
2019-06-08T19:58:18.020Z,1.73
2019-06-08T20:00:52.360Z,1.70
2019-06-08T20:03:14.794Z,1.93
2019-06-08T20:05:42.908Z,1.87
2019-06-08T20:08:10.147Z,2.10
2019-06-08T20:10:37.122Z,2.10
2019-06-08T20:13:04.052Z,1.57
2019-06-08T20:15:31.023Z,2.30
2019-06-08T20:17:57.998Z,2.27
2019-06-08T20:20:27.704Z,2.50
2019-06-08T20:22:54.206Z,2.57
2019-06-08T20:25:21.452Z,2.10
2019-06-08T20:27:51.716Z,1.90
2019-06-08T20:30:18.980Z,1.90
2019-06-08T20:32:50.746Z,2.00
2019-06-08T20:35:17.425Z,2.10
2019-06-08T20:37:45.677Z,2.10
2019-06-08T20:40:14.320Z,1.90
2019-06-08T20:42:42.235Z,1.97
2019-06-08T20:45:09.617Z,2.10
2019-06-08T20:47:38.910Z,2.57
2019-06-08T20:50:07.482Z,2.20
2019-06-08T20:52:34.651Z,2.17
2019-06-08T20:55:01.766Z,2.00
2019-06-08T20:57:28.709Z,2.40
2019-06-08T20:59:57.892Z,1.93
2019-06-08T21:02:24.709Z,2.50
2019-06-08T21:04:54.451Z,2.20
2019-06-08T21:07:20.941Z,2.03
2019-06-08T21:09:50.639Z,2.20
2019-06-08T21:12:17.779Z,1.80
2019-06-08T21:14:45.254Z,2.43
2019-06-08T21:17:13.481Z,2.20
2019-06-08T21:19:40.461Z,2.20
2019-06-08T21:22:08.217Z,2.23
2019-06-08T21:24:37.137Z,1.83
2019-06-08T21:27:04.260Z,2.40
2019-06-08T21:29:47.067Z,2.87
2019-06-08T21:32:02.290Z,2.37
2019-06-08T21:34:29.158Z,2.63
2019-06-08T21:37:00.301Z,2.33
2019-06-08T21:39:24.994Z,2.17
2019-06-08T21:41:54.846Z,3.63
2019-06-08T21:44:21.409Z,2.87
2019-06-08T21:47:01.604Z,2.73
2019-06-08T21:49:28.822Z,2.73
2019-06-08T21:51:59.282Z,3.00
2019-06-08T21:54:27.181Z,2.93
2019-06-08T21:56:54.736Z,3.00
2019-06-08T21:59:21.783Z,3.07
2019-06-08T22:02:31.675Z,3.10
2019-06-08T22:08:39.622Z,2.87
2019-06-08T22:11:12.856Z,3.53
2019-06-08T22:17:11.501Z,3.30
2019-06-08T22:19:38.441Z,3.60
2019-06-08T22:22:05.417Z,3.73
2019-06-08T22:24:33.097Z,2.97
2019-06-08T22:27:38.143Z,3.33
2019-06-08T22:30:13.454Z,3.00
2019-06-08T22:32:34.687Z,3.43
2019-06-08T22:35:02.331Z,3.40
2019-06-08T22:37:30.551Z,3.57
2019-06-08T22:39:58.244Z,3.13
2019-06-08T22:42:26.394Z,3.30
2019-06-08T22:44:54.277Z,2.90
2019-06-08T22:47:23.151Z,3.27
2019-06-08T22:49:51.006Z,3.20
2019-06-08T22:52:18.621Z,4.57
2019-06-08T22:54:47.594Z,3.90
2019-06-08T22:57:14.536Z,3.23
2019-06-08T23:00:01.857Z,3.80
2019-06-08T23:02:28.634Z,3.13
2019-06-08T23:04:56.224Z,3.33
2019-06-08T23:07:29.175Z,3.70
2019-06-08T23:09:55.159Z,4.10
2019-06-08T23:13:08.319Z,4.43
2019-06-08T23:15:34.900Z,4.30
2019-06-08T23:18:03.000Z,3.97
2019-06-08T23:20:30.859Z,4.10
2019-06-08T23:22:58.624Z,3.10
2019-06-08T23:25:27.937Z,3.63
2019-06-08T23:27:56.236Z,3.17
2019-06-08T23:31:10.699Z,4.07
2019-06-08T23:33:28.958Z,3.30
2019-06-08T23:36:35.829Z,3.70
2019-06-08T23:39:20.341Z,3.63
2019-06-08T23:41:48.474Z,3.67
2019-06-08T23:44:17.492Z,3.53
2019-06-08T23:46:44.381Z,3.53
2019-06-08T23:49:11.330Z,3.40
2019-06-08T23:51:38.271Z,3.63
2019-06-08T23:54:09.170Z,4.43
2019-06-08T23:56:34.264Z,4.03
2019-06-08T23:59:01.423Z,3.60
